createdAt,value
2023-05-19T00:00:28.642Z,71.80
2023-05-19T00:05:31.237Z,71.83
2023-05-19T00:10:33.291Z,72.13
2023-05-19T00:15:35.412Z,72.24
2023-05-19T00:20:38.057Z,72.60
2023-05-19T00:25:39.506Z,72.58
2023-05-19T00:30:40.960Z,72.99
2023-05-19T00:35:42.414Z,73.14
2023-05-19T00:40:43.987Z,73.87
2023-05-19T00:45:46.892Z,74.31
2023-05-19T00:50:50.273Z,74.24
2023-05-19T00:55:51.840Z,74.61
2023-05-19T01:00:55.964Z,74.85
2023-05-19T01:06:01.610Z,75.27
2023-05-19T01:11:03.887Z,75.44
2023-05-19T01:16:13.113Z,75.65
2023-05-19T01:21:31.451Z,75.77
2023-05-19T01:27:00.669Z,75.61
2023-05-19T01:32:04.868Z,75.53
2023-05-19T01:37:07.976Z,75.96
2023-05-19T01:42:09.675Z,76.03
2023-05-19T01:47:11.605Z,76.31
2023-05-19T01:52:13.182Z,76.24
2023-05-19T01:57:43.230Z,76.54
2023-05-19T02:02:56.717Z,76.65
2023-05-19T02:08:06.304Z,76.40
2023-05-19T02:13:11.268Z,76.97
2023-05-19T02:18:17.946Z,76.89
2023-05-19T02:23:19.403Z,77.47
2023-05-19T02:28:20.947Z,77.49
2023-05-19T02:33:24.699Z,77.68
2023-05-19T02:38:26.807Z,78.19
2023-05-19T02:43:30.608Z,77.45
2023-05-19T02:48:32.070Z,77.86
2023-05-19T02:53:33.589Z,77.09
2023-05-19T02:58:35.136Z,77.17
2023-05-19T03:03:36.798Z,77.27
2023-05-19T03:08:40.751Z,76.94
2023-05-19T03:13:43.690Z,76.83
2023-05-19T03:18:45.948Z,77.28
2023-05-19T03:23:47.518Z,77.36
2023-05-19T03:28:49.022Z,77.15
2023-05-19T03:33:50.723Z,77.73
2023-05-19T03:38:52.227Z,77.13
2023-05-19T03:43:53.723Z,77.25
2023-05-19T03:48:55.453Z,77.96
2023-05-19T03:53:57.196Z,77.12
2023-05-19T03:58:59.429Z,76.85
2023-05-19T04:04:00.947Z,78.27
2023-05-19T04:09:04.523Z,77.88
2023-05-19T04:14:06.595Z,78.84
2023-05-19T04:19:08.185Z,78.64
2023-05-19T04:24:09.777Z,78.44
2023-05-19T04:29:13.850Z,77.89
2023-05-19T04:34:15.304Z,77.84
2023-05-19T04:39:16.813Z,78.15
2023-05-19T04:44:19.192Z,78.17
2023-05-19T04:49:20.777Z,77.85
2023-05-19T04:54:22.259Z,78.09
2023-05-19T04:59:23.718Z,76.83
2023-05-19T05:04:25.970Z,77.95
2023-05-19T05:09:27.442Z,78.02
2023-05-19T05:14:29.308Z,77.75
2023-05-19T05:19:31.481Z,77.08
2023-05-19T05:24:33.279Z,76.43
2023-05-19T05:29:34.789Z,76.42
2023-05-19T05:34:38.088Z,76.70
2023-05-19T05:39:39.543Z,76.18
2023-05-19T05:44:41.106Z,76.41
2023-05-19T05:49:43.922Z,76.21
2023-05-19T05:54:46.331Z,77.38
2023-05-19T05:59:47.828Z,76.37
2023-05-19T06:04:49.356Z,76.96
2023-05-19T06:09:50.790Z,76.88
2023-05-19T06:14:52.361Z,77.66
2023-05-19T06:19:54.347Z,77.48
2023-05-19T06:24:55.916Z,77.50
2023-05-19T06:29:57.430Z,77.53
2023-05-19T06:34:58.941Z,76.63
2023-05-19T06:40:00.474Z,77.56
2023-05-19T06:45:02.079Z,77.61
2023-05-19T06:50:03.831Z,78.53
2023-05-19T06:55:05.973Z,78.16
2023-05-19T07:00:13.349Z,79.00
2023-05-19T07:05:16.106Z,78.18
2023-05-19T07:10:17.949Z,78.27
2023-05-19T07:15:19.501Z,78.95
2023-05-19T07:20:20.991Z,77.93
2023-05-19T07:25:22.499Z,78.33
2023-05-19T07:30:24.021Z,78.35
2023-05-19T07:35:26.301Z,79.14
2023-05-19T07:40:27.749Z,79.34
2023-05-19T07:45:29.421Z,78.06
2023-05-19T07:50:31.052Z,78.55
2023-05-19T07:55:32.601Z,79.67
2023-05-19T08:00:34.313Z,78.88
2023-05-19T08:05:36.405Z,79.77
2023-05-19T08:10:37.884Z,79.58
2023-05-19T08:15:39.476Z,78.48
2023-05-19T08:20:41.029Z,77.99
2023-05-19T08:25:42.524Z,78.16
2023-05-19T08:30:43.972Z,77.69
2023-05-19T08:35:45.508Z,73.88
2023-05-19T08:40:48.406Z,73.95
2023-05-19T08:45:50.377Z,70.97
2023-05-19T08:51:17.860Z,72.23
2023-05-19T08:56:25.150Z,73.51
2023-05-19T09:01:28.903Z,73.02
2023-05-19T09:06:33.353Z,73.01
2023-05-19T09:11:37.521Z,72.85
2023-05-19T09:16:39.340Z,71.36
2023-05-19T09:21:41.395Z,71.01
2023-05-19T09:26:43.055Z,69.81
2023-05-19T09:31:52.605Z,70.04
2023-05-19T09:36:54.366Z,70.27
2023-05-19T09:41:58.505Z,70.33
2023-05-19T09:47:00.078Z,70.50
2023-05-19T09:52:05.864Z,70.01
2023-05-19T09:57:08.579Z,71.14
2023-05-19T10:02:21.299Z,69.76
2023-05-19T10:07:24.163Z,69.31
2023-05-19T10:12:26.794Z,68.73
2023-05-19T10:17:28.878Z,68.83
2023-05-19T10:22:30.513Z,68.80
2023-05-19T10:27:34.996Z,70.39
2023-05-19T10:32:39.383Z,69.65
2023-05-19T10:37:51.192Z,70.66
2023-05-19T10:43:37.166Z,72.41
2023-05-19T10:48:38.692Z,71.45
2023-05-19T10:53:46.441Z,73.32
2023-05-19T10:58:52.145Z,72.51
2023-05-19T11:03:57.644Z,73.50
2023-05-19T11:09:20.937Z,74.21
2023-05-19T11:14:27.596Z,74.85
2023-05-19T11:19:31.281Z,74.30
2023-05-19T11:24:40.623Z,73.30
2023-05-19T11:29:42.616Z,73.87
2023-05-19T11:34:45.834Z,73.59
2023-05-19T11:39:47.839Z,73.20
2023-05-19T11:44:49.580Z,73.99
2023-05-19T11:49:54.911Z,73.81
2023-05-19T11:55:01.560Z,74.07
2023-05-19T12:00:08.994Z,73.49
2023-05-19T12:05:18.704Z,75.27
2023-05-19T12:10:27.896Z,75.17
2023-05-19T12:15:29.401Z,74.31
2023-05-19T12:20:36.039Z,74.71
2023-05-19T12:25:38.485Z,74.93
2023-05-19T12:30:40.113Z,75.80
2023-05-19T12:35:42.404Z,75.37
2023-05-19T12:40:44.228Z,73.98
2023-05-19T12:45:45.908Z,74.41
2023-05-19T12:50:47.440Z,75.04
2023-05-19T12:55:52.843Z,74.59
2023-05-19T13:00:59.819Z,75.01
2023-05-19T13:06:01.447Z,75.07
2023-05-19T13:11:02.939Z,76.18
2023-05-19T13:16:04.779Z,76.38
2023-05-19T13:21:06.307Z,75.51
2023-05-19T13:26:07.839Z,76.12
2023-05-19T13:31:09.342Z,76.61
2023-05-19T13:36:10.868Z,75.50
2023-05-19T13:41:13.789Z,75.65
2023-05-19T13:46:16.010Z,75.57
2023-05-19T13:51:17.536Z,75.65
2023-05-19T13:56:19.028Z,75.72
2023-05-19T14:01:20.536Z,75.74
2023-05-19T14:06:22.135Z,75.22
2023-05-19T14:11:23.690Z,75.25
2023-05-19T14:16:26.483Z,74.31
2023-05-19T14:21:27.967Z,73.91
2023-05-19T14:26:29.558Z,72.62
2023-05-19T14:31:32.631Z,73.21
2023-05-19T14:36:35.169Z,73.17
2023-05-19T14:41:36.740Z,74.21
2023-05-19T14:46:38.258Z,74.35
2023-05-19T14:51:39.874Z,73.72
2023-05-19T14:56:41.339Z,73.54
2023-05-19T15:01:42.955Z,73.32
2023-05-19T15:06:46.349Z,72.56
2023-05-19T15:11:49.583Z,72.01
2023-05-19T15:16:51.083Z,72.20
2023-05-19T15:21:52.549Z,72.19
2023-05-19T15:26:55.376Z,72.66
2023-05-19T15:31:58.113Z,73.12
2023-05-19T15:36:59.638Z,73.52
2023-05-19T15:42:01.286Z,74.09
2023-05-19T15:47:03.161Z,73.90
2023-05-19T15:52:04.895Z,74.91
2023-05-19T15:57:06.381Z,74.22
2023-05-19T16:02:08.425Z,74.02
2023-05-19T16:07:09.922Z,74.83
2023-05-19T16:12:11.409Z,75.01
2023-05-19T16:17:13.869Z,74.42
2023-05-19T16:22:15.840Z,73.71
2023-05-19T16:27:17.345Z,74.07
2023-05-19T16:32:18.943Z,73.93
2023-05-19T16:37:20.607Z,74.31
2023-05-19T16:42:22.699Z,74.23
2023-05-19T16:47:24.177Z,73.82
2023-05-19T16:52:25.734Z,73.96
2023-05-19T16:57:27.298Z,74.32
2023-05-19T17:02:28.940Z,74.75
2023-05-19T17:07:30.493Z,74.23
2023-05-19T17:12:31.989Z,75.32
2023-05-19T17:17:33.482Z,75.13
2023-05-19T17:22:34.996Z,75.49
2023-05-19T17:27:36.488Z,75.59
2023-05-19T17:32:39.431Z,75.19
2023-05-19T17:37:41.772Z,75.23
2023-05-19T17:42:43.414Z,75.36
2023-05-19T17:47:44.945Z,75.14
2023-05-19T17:52:46.753Z,76.22
2023-05-19T17:57:49.056Z,77.30
2023-05-19T18:02:51.103Z,76.88
2023-05-19T18:07:53.937Z,77.20
2023-05-19T18:12:55.462Z,77.10
2023-05-19T18:17:57.137Z,77.21
2023-05-19T18:22:58.727Z,77.89
2023-05-19T18:28:00.352Z,78.01
2023-05-19T18:33:03.747Z,77.91
2023-05-19T18:38:05.692Z,77.67
2023-05-19T18:43:07.184Z,77.58
2023-05-19T18:48:08.910Z,78.33
2023-05-19T18:53:11.798Z,78.76
2023-05-19T18:58:13.248Z,78.25
2023-05-19T19:03:15.363Z,78.60
2023-05-19T19:08:17.403Z,79.25
2023-05-19T19:13:19.058Z,79.06
2023-05-19T19:18:20.550Z,79.33
2023-05-19T19:23:22.023Z,78.90
2023-05-19T19:28:23.938Z,79.65
2023-05-19T19:33:25.472Z,80.06
2023-05-19T19:38:26.944Z,79.54
2023-05-19T19:43:28.423Z,80.11
2023-05-19T19:48:30.464Z,80.53
2023-05-19T19:53:31.996Z,80.02
2023-05-19T19:58:33.486Z,80.75
2023-05-19T20:03:35.592Z,80.28
2023-05-19T20:08:37.504Z,81.98
2023-05-19T20:13:38.990Z,81.42
2023-05-19T20:18:40.629Z,82.33
2023-05-19T20:23:42.192Z,81.86
2023-05-19T20:28:43.754Z,82.54
2023-05-19T20:33:45.217Z,82.36
2023-05-19T20:38:47.931Z,82.35
2023-05-19T20:43:49.513Z,82.89
2023-05-19T20:48:51.209Z,83.06
2023-05-19T20:53:53.145Z,84.06
2023-05-19T20:58:54.652Z,83.64
2023-05-19T21:03:57.222Z,83.71
2023-05-19T21:08:58.723Z,83.57
2023-05-19T21:14:06.219Z,83.73
2023-05-19T21:19:07.878Z,84.36
2023-05-19T21:24:09.929Z,84.13
2023-05-19T21:29:11.413Z,84.08
2023-05-19T21:34:12.911Z,84.98
2023-05-19T21:39:14.415Z,84.84
2023-05-19T21:44:15.868Z,85.05
2023-05-19T21:49:17.346Z,84.79
2023-05-19T21:54:18.785Z,86.56
2023-05-19T21:59:23.175Z,85.19
2023-05-19T22:04:24.671Z,85.55
2023-05-19T22:09:26.655Z,85.95
2023-05-19T22:14:28.095Z,86.05
2023-05-19T22:19:29.746Z,86.40
2023-05-19T22:24:31.337Z,86.25
2023-05-19T22:29:32.953Z,86.35
2023-05-19T22:34:34.435Z,86.47
2023-05-19T22:39:36.354Z,86.57
2023-05-19T22:44:37.829Z,87.70
2023-05-19T22:49:42.837Z,88.11
2023-05-19T22:54:44.403Z,87.83
2023-05-19T22:59:45.988Z,88.05
2023-05-19T23:04:47.422Z,88.11
2023-05-19T23:09:48.967Z,88.24
2023-05-19T23:14:50.953Z,87.72
2023-05-19T23:19:52.514Z,87.14
2023-05-19T23:24:53.983Z,86.87
2023-05-19T23:29:55.790Z,88.08
2023-05-19T23:35:00.432Z,87.81
2023-05-19T23:40:01.926Z,88.12
2023-05-19T23:45:03.997Z,87.67
2023-05-19T23:50:05.772Z,86.49
2023-05-19T23:55:08.064Z,87.51
